createdAt,value
2022-11-18T00:02:20.023Z,12.50
2022-11-18T00:07:24.339Z,12.60
2022-11-18T00:12:44.798Z,12.60
2022-11-18T00:17:47.709Z,12.70
2022-11-18T00:23:03.086Z,12.70
2022-11-18T00:28:06.080Z,12.70
2022-11-18T00:33:08.984Z,12.80
2022-11-18T00:38:13.270Z,12.70
2022-11-18T00:43:17.068Z,12.80
2022-11-18T00:48:21.778Z,12.80
2022-11-18T00:53:27.953Z,12.70
2022-11-18T00:58:31.149Z,12.70
2022-11-18T01:03:34.195Z,12.60
2022-11-18T01:08:38.560Z,12.70
2022-11-18T01:13:50.865Z,12.70
2022-11-18T01:18:54.452Z,12.70
2022-11-18T01:23:58.778Z,12.70
2022-11-18T01:29:01.696Z,12.60
2022-11-18T01:34:04.844Z,12.40
2022-11-18T01:39:09.163Z,12.40
2022-11-18T01:44:45.651Z,12.30
2022-11-18T01:49:49.930Z,12.40
2022-11-18T01:55:00.426Z,12.40
2022-11-18T02:00:05.698Z,12.40
2022-11-18T02:05:11.847Z,12.40
2022-11-18T02:10:22.331Z,12.50
2022-11-18T02:15:38.505Z,12.50
2022-11-18T02:20:43.141Z,12.50
2022-11-18T02:26:02.335Z,12.50
2022-11-18T02:31:13.062Z,12.60
2022-11-18T02:36:21.803Z,12.60
2022-11-18T02:41:28.892Z,12.60
2022-11-18T02:46:36.181Z,12.50
2022-11-18T02:51:39.792Z,12.50
2022-11-18T02:56:44.857Z,12.40
2022-11-18T03:01:49.682Z,12.50
2022-11-18T03:07:03.462Z,12.50
2022-11-18T03:12:16.529Z,12.40
2022-11-18T03:17:33.556Z,12.30
2022-11-18T03:22:41.715Z,12.30
2022-11-18T03:27:51.355Z,12.30
2022-11-18T03:33:03.522Z,12.10
2022-11-18T03:38:11.241Z,11.70
2022-11-18T03:43:18.466Z,11.80
2022-11-18T03:48:27.623Z,12.00
2022-11-18T03:53:35.039Z,12.00
2022-11-18T03:58:44.790Z,12.00
2022-11-18T04:03:49.262Z,11.70
2022-11-18T04:08:55.831Z,12.00
2022-11-18T04:14:00.460Z,12.20
2022-11-18T04:19:19.335Z,12.10
2022-11-18T04:24:22.547Z,11.90
2022-11-18T04:29:25.543Z,11.90
2022-11-18T04:34:30.735Z,12.10
2022-11-18T04:39:33.935Z,12.00
2022-11-18T04:44:37.046Z,11.90
2022-11-18T04:49:41.583Z,11.90
2022-11-18T04:54:44.677Z,12.00
2022-11-18T04:59:47.722Z,12.10
2022-11-18T05:05:25.082Z,11.90
2022-11-18T05:10:28.090Z,11.90
2022-11-18T05:15:31.552Z,11.90
2022-11-18T05:20:41.224Z,11.80
2022-11-18T05:25:44.582Z,11.70
2022-11-18T05:30:47.459Z,11.60
2022-11-18T05:35:55.127Z,11.40
2022-11-18T05:40:58.287Z,11.50
2022-11-18T05:46:01.377Z,11.40
2022-11-18T05:51:05.824Z,11.40
2022-11-18T05:56:29.206Z,11.20
2022-11-18T06:01:37.625Z,11.20
2022-11-18T06:06:42.326Z,11.40
2022-11-18T06:11:47.662Z,11.40
2022-11-18T06:16:54.859Z,11.40
2022-11-18T06:21:59.875Z,11.40
2022-11-18T06:27:03.036Z,11.50
2022-11-18T06:32:06.137Z,11.50
2022-11-18T06:37:17.630Z,11.40
2022-11-18T06:42:34.440Z,11.40
2022-11-18T06:47:37.297Z,11.30
2022-11-18T06:52:41.494Z,11.30
2022-11-18T06:57:44.392Z,11.30
2022-11-18T07:02:47.389Z,11.40
2022-11-18T07:07:51.751Z,11.30
2022-11-18T07:12:54.667Z,11.40
2022-11-18T07:17:59.561Z,11.30
2022-11-18T07:23:03.771Z,11.30
2022-11-18T07:28:06.870Z,11.30
2022-11-18T07:33:09.740Z,11.40
2022-11-18T07:38:13.991Z,11.50
2022-11-18T07:43:16.881Z,11.60
2022-11-18T07:48:19.766Z,11.60
2022-11-18T07:53:24.015Z,11.50
2022-11-18T07:58:26.924Z,11.50
2022-11-18T08:03:30.453Z,11.50
2022-11-18T08:08:34.799Z,11.60
2022-11-18T08:13:37.769Z,11.50
2022-11-18T08:18:40.688Z,11.50
2022-11-18T08:23:45.148Z,11.50
2022-11-18T08:28:48.523Z,11.40
2022-11-18T08:33:55.741Z,11.50
2022-11-18T08:39:01.498Z,11.50
2022-11-18T08:44:05.629Z,11.50
2022-11-18T08:49:08.504Z,11.60
2022-11-18T08:54:12.739Z,11.60
2022-11-18T08:59:15.935Z,11.60
2022-11-18T09:04:19.485Z,11.70
2022-11-18T09:09:24.104Z,11.70
2022-11-18T09:19:50.078Z,11.60
2022-11-18T09:24:54.306Z,11.70
2022-11-18T09:29:57.203Z,11.70
2022-11-18T09:35:00.153Z,11.70
2022-11-18T09:40:04.818Z,11.90
2022-11-18T09:45:23.831Z,11.80
2022-11-18T09:55:53.506Z,11.70
2022-11-18T10:00:56.372Z,11.80
2022-11-18T10:06:04.939Z,11.80
2022-11-18T10:11:15.533Z,11.90
2022-11-18T10:16:30.210Z,12.00
2022-11-18T10:21:44.186Z,11.90
2022-11-18T10:26:48.894Z,12.10
2022-11-18T10:32:04.127Z,12.10
2022-11-18T10:37:34.453Z,12.00
2022-11-18T10:42:47.160Z,12.10
2022-11-18T10:47:59.050Z,12.00
2022-11-18T10:53:02.350Z,12.00
2022-11-18T10:58:16.047Z,11.90
2022-11-18T11:03:34.514Z,12.10
2022-11-18T11:08:48.656Z,12.00
2022-11-18T11:13:54.877Z,12.00
2022-11-18T11:19:03.776Z,12.10
2022-11-18T11:24:12.452Z,12.20
2022-11-18T11:29:35.024Z,12.10
2022-11-18T11:34:45.113Z,12.20
2022-11-18T11:40:02.421Z,12.40
2022-11-18T11:45:19.098Z,12.40
2022-11-18T11:50:28.708Z,12.40
2022-11-18T11:55:37.436Z,12.50
2022-11-18T12:00:46.375Z,12.60
2022-11-18T12:05:49.502Z,12.60
2022-11-18T12:10:58.378Z,12.60
2022-11-18T12:16:15.639Z,12.70
2022-11-18T12:21:53.213Z,12.70
2022-11-18T12:26:56.149Z,12.50
2022-11-18T12:32:02.255Z,12.60
2022-11-18T12:37:40.928Z,12.70
2022-11-18T12:43:03.701Z,12.70
2022-11-18T12:48:35.532Z,12.90
2022-11-18T12:53:40.841Z,13.10
2022-11-18T12:58:46.416Z,13.10
2022-11-18T13:03:51.357Z,13.20
2022-11-18T13:08:56.920Z,13.20
2022-11-18T13:14:17.341Z,13.30
2022-11-18T13:19:24.650Z,13.40
2022-11-18T13:24:27.569Z,13.10
2022-11-18T13:29:39.431Z,13.10
2022-11-18T13:34:47.913Z,12.90
2022-11-18T13:39:50.917Z,13.00
2022-11-18T13:44:55.655Z,13.30
2022-11-18T13:50:13.537Z,13.20
2022-11-18T13:55:21.115Z,13.30
2022-11-18T14:00:28.492Z,13.20
2022-11-18T14:05:33.287Z,13.30
2022-11-18T14:10:46.063Z,13.50
2022-11-18T14:15:49.310Z,13.40
2022-11-18T14:20:55.816Z,13.30
2022-11-18T14:26:00.754Z,13.40
2022-11-18T14:31:25.208Z,13.50
2022-11-18T14:36:30.324Z,13.60
2022-11-18T14:41:50.255Z,13.50
2022-11-18T14:46:58.058Z,13.40
2022-11-18T14:52:04.536Z,13.30
2022-11-18T14:57:07.770Z,13.60
2022-11-18T15:02:15.434Z,13.50
2022-11-18T15:07:24.420Z,13.40
2022-11-18T15:12:28.174Z,13.20
2022-11-18T15:17:31.134Z,13.10
2022-11-18T15:22:35.677Z,13.20
2022-11-18T15:27:39.510Z,13.10
2022-11-18T15:32:43.382Z,13.00
2022-11-18T15:37:47.653Z,12.90
2022-11-18T15:42:52.238Z,12.80
2022-11-18T15:47:55.435Z,12.70
2022-11-18T15:52:59.945Z,12.70
2022-11-18T15:58:02.832Z,12.60
2022-11-18T16:03:05.835Z,12.60
2022-11-18T16:08:10.121Z,12.70
2022-11-18T16:13:13.042Z,12.70
2022-11-18T16:18:17.824Z,12.50
2022-11-18T16:23:22.111Z,12.40
2022-11-18T16:28:24.991Z,12.50
2022-11-18T16:33:27.907Z,12.40
2022-11-18T16:38:33.163Z,12.30
2022-11-18T16:43:36.139Z,12.20
2022-11-18T16:48:39.010Z,12.10
2022-11-18T16:53:43.298Z,12.10
2022-11-18T16:58:46.216Z,12.20
2022-11-18T17:03:51.709Z,11.90
2022-11-18T17:08:56.330Z,12.10
2022-11-18T17:13:59.216Z,12.10
2022-11-18T17:19:08.447Z,12.10
2022-11-18T17:24:23.768Z,12.10
2022-11-18T17:29:27.040Z,12.00
2022-11-18T17:35:00.957Z,12.10
2022-11-18T17:40:39.390Z,11.90
2022-11-18T17:45:42.645Z,11.80
2022-11-18T17:50:46.808Z,11.60
2022-11-18T17:55:51.407Z,11.70
2022-11-18T18:00:55.018Z,11.80
2022-11-18T18:06:05.186Z,11.90
2022-11-18T18:11:11.585Z,11.80
2022-11-18T18:16:14.878Z,11.80
2022-11-18T18:21:18.197Z,11.90
2022-11-18T18:26:28.252Z,11.80
2022-11-18T18:31:35.715Z,11.80
2022-11-18T18:36:43.918Z,11.80
2022-11-18T18:41:49.200Z,11.70
2022-11-18T18:46:55.005Z,11.80
2022-11-18T18:51:58.087Z,11.90
2022-11-18T18:57:02.704Z,11.80
2022-11-18T19:02:06.757Z,11.80
2022-11-18T19:07:09.871Z,11.80
2022-11-18T19:12:32.496Z,11.70
2022-11-18T19:17:35.664Z,11.60
2022-11-18T19:22:52.318Z,11.60
2022-11-18T19:28:44.819Z,11.70
2022-11-18T19:40:27.815Z,11.50
2022-11-18T19:46:08.958Z,11.40
2022-11-18T19:57:23.722Z,11.50
2022-11-18T20:03:23.367Z,11.50
2022-11-18T20:09:10.335Z,11.30
2022-11-18T20:14:35.800Z,11.30
2022-11-18T20:26:20.071Z,11.30
2022-11-18T20:50:52.358Z,11.20
2022-11-18T20:56:38.477Z,11.30
2022-11-18T21:08:19.093Z,11.10
2022-11-18T21:13:39.417Z,11.40
2022-11-18T21:18:50.408Z,11.40
2022-11-18T21:23:56.306Z,11.40
2022-11-18T21:29:01.263Z,11.20
2022-11-18T21:34:04.648Z,11.30
2022-11-18T21:39:12.011Z,11.20
2022-11-18T21:44:15.487Z,11.10
2022-11-18T21:49:18.634Z,11.20
2022-11-18T21:54:23.208Z,11.20
2022-11-18T21:59:26.273Z,11.20
2022-11-18T22:04:47.038Z,11.10
2022-11-18T22:09:51.476Z,11.10
2022-11-18T22:14:54.380Z,11.10
2022-11-18T22:19:57.260Z,11.00
2022-11-18T22:25:01.549Z,11.10
2022-11-18T22:30:04.696Z,11.10
2022-11-18T22:35:08.862Z,11.10
2022-11-18T22:40:14.152Z,11.10
2022-11-18T22:45:17.392Z,11.20
2022-11-18T22:50:20.458Z,11.20
2022-11-18T22:55:24.759Z,11.10
2022-11-18T23:00:27.892Z,11.10
2022-11-18T23:05:30.774Z,11.00
2022-11-18T23:10:35.000Z,11.00
2022-11-18T23:15:40.289Z,11.00
2022-11-18T23:20:43.195Z,11.00
2022-11-18T23:25:47.411Z,11.10
2022-11-18T23:30:50.296Z,11.10
2022-11-18T23:35:53.573Z,11.10
2022-11-18T23:40:58.795Z,11.00
2022-11-18T23:46:02.554Z,11.10
2022-11-18T23:51:07.212Z,11.20
2022-11-18T23:56:13.705Z,11.30
